International Virtual Aviation Organisation

Russian Federation and Kazakhstan MCD

 
URWW 270330Z 24005MPS 3200 BR BKN002 M03/M04 Q1026 R24/250060 NOSIG RMK QBB060 OBST OBSC
QNH:(hPa/inHg/mmHg)1026 / 30.3 / 770
QFE:(hPa/inHg/mmHg)1008 / 29.77 / 756
Temperature-3
Dew Point-4
Visibility3200
WeatherMist
Cloud CoverBKN (200);
Transition Height700 m./2800 ft.
Transition LevelFL40
SQUAWK